createdAt,value
2023-03-26T00:01:36.300Z,7.40
2023-03-26T00:04:05.704Z,7.40
2023-03-26T00:06:38.869Z,7.40
2023-03-26T00:09:13.252Z,7.40
2023-03-26T00:11:40.411Z,7.40
2023-03-26T00:14:07.246Z,7.40
2023-03-26T00:16:34.506Z,7.40
2023-03-26T00:19:02.499Z,7.40
2023-03-26T00:21:31.386Z,7.40
2023-03-26T00:24:04.289Z,7.50
2023-03-26T00:26:32.312Z,7.50
2023-03-26T00:29:00.304Z,7.50
2023-03-26T00:31:27.409Z,7.40
2023-03-26T00:33:57.684Z,7.50
2023-03-26T00:36:26.648Z,7.50
2023-03-26T00:38:54.558Z,7.60
2023-03-26T00:41:30.774Z,7.60
2023-03-26T00:44:00.000Z,7.50
2023-03-26T00:46:31.345Z,7.40
2023-03-26T00:48:59.752Z,7.50
2023-03-26T00:51:28.003Z,7.50
2023-03-26T00:53:55.494Z,7.60
2023-03-26T00:56:22.324Z,7.50
2023-03-26T00:58:50.180Z,7.60
2023-03-26T01:01:27.513Z,7.60
2023-03-26T01:04:17.656Z,7.50
2023-03-26T01:06:45.349Z,7.50
2023-03-26T01:09:18.688Z,7.50
2023-03-26T01:11:46.535Z,7.50
2023-03-26T01:14:28.853Z,7.60
2023-03-26T01:17:02.168Z,7.70
2023-03-26T01:19:47.435Z,7.60
2023-03-26T01:22:24.518Z,7.50
2023-03-26T01:24:56.495Z,7.50
2023-03-26T01:27:25.726Z,7.50
2023-03-26T01:30:22.167Z,7.50
2023-03-26T01:33:30.240Z,7.40
2023-03-26T01:36:13.532Z,7.40
2023-03-26T01:39:18.521Z,7.40
2023-03-26T01:41:54.022Z,7.40
2023-03-26T01:44:39.053Z,7.30
2023-03-26T01:47:07.772Z,7.30
2023-03-26T01:49:34.597Z,7.30
2023-03-26T01:52:02.191Z,7.40
2023-03-26T01:54:31.372Z,7.40
2023-03-26T01:57:20.927Z,7.40
2023-03-26T02:00:14.128Z,7.40
2023-03-26T02:03:19.903Z,7.40
2023-03-26T02:05:58.361Z,7.30
2023-03-26T02:08:35.847Z,7.30
2023-03-26T02:11:11.475Z,7.30
2023-03-26T02:13:45.503Z,7.30
2023-03-26T02:16:16.418Z,7.30
2023-03-26T02:18:46.068Z,7.20
2023-03-26T02:21:21.553Z,7.20
2023-03-26T02:24:03.050Z,7.20
2023-03-26T02:26:33.533Z,7.10
2023-03-26T02:29:01.625Z,7.10
2023-03-26T02:31:28.452Z,7.10
2023-03-26T02:33:55.616Z,7.10
2023-03-26T02:36:27.107Z,7.10
2023-03-26T02:38:55.736Z,7.10
2023-03-26T02:41:22.615Z,7.10
2023-03-26T02:43:49.457Z,7.10
2023-03-26T02:46:16.258Z,7.10
2023-03-26T02:48:43.893Z,7.10
2023-03-26T02:51:10.865Z,7.10
2023-03-26T02:53:39.406Z,7.10
2023-03-26T02:56:06.917Z,7.20
2023-03-26T02:58:33.754Z,7.10
2023-03-26T03:01:03.020Z,7.20
2023-03-26T03:03:30.642Z,7.20
2023-03-26T03:05:58.046Z,7.20
2023-03-26T03:08:28.103Z,7.20
2023-03-26T03:11:03.903Z,7.20
2023-03-26T03:13:30.723Z,7.20
2023-03-26T03:15:58.222Z,7.20
2023-03-26T03:18:25.586Z,7.20
2023-03-26T03:20:53.900Z,7.20
2023-03-26T03:23:21.171Z,7.20
2023-03-26T03:25:49.001Z,7.20
2023-03-26T03:28:18.113Z,7.20
2023-03-26T03:30:45.733Z,7.30
2023-03-26T03:33:13.120Z,7.30
2023-03-26T03:35:41.496Z,7.30
2023-03-26T03:38:08.434Z,7.30
2023-03-26T03:40:35.198Z,7.30
2023-03-26T03:43:01.977Z,7.30
2023-03-26T03:45:28.727Z,7.30
2023-03-26T03:47:55.855Z,7.30
2023-03-26T03:50:22.705Z,7.30
2023-03-26T03:52:50.628Z,7.30
2023-03-26T03:55:17.497Z,7.30
2023-03-26T03:57:44.548Z,7.30
2023-03-26T04:00:13.032Z,7.30
2023-03-26T04:02:42.867Z,7.40
2023-03-26T04:05:11.601Z,7.40
2023-03-26T04:07:38.767Z,7.40
2023-03-26T04:10:08.614Z,7.40
2023-03-26T04:12:35.375Z,7.40
2023-03-26T04:15:02.569Z,7.40
2023-03-26T04:17:30.603Z,7.40
2023-03-26T04:19:57.650Z,7.40
2023-03-26T04:22:34.297Z,7.40
2023-03-26T04:25:02.482Z,7.40
2023-03-26T04:27:32.041Z,7.40
2023-03-26T04:30:01.605Z,7.40
2023-03-26T04:32:33.919Z,7.40
2023-03-26T04:35:03.980Z,7.30
2023-03-26T04:37:35.411Z,7.40
2023-03-26T04:40:10.524Z,7.40
2023-03-26T04:42:41.677Z,7.40
2023-03-26T04:45:11.092Z,7.40
2023-03-26T04:47:39.489Z,7.40
2023-03-26T04:50:09.259Z,7.40
2023-03-26T04:52:37.334Z,7.40
2023-03-26T04:55:08.134Z,7.30
2023-03-26T04:57:43.602Z,7.30
2023-03-26T05:00:16.407Z,7.30
2023-03-26T05:02:43.838Z,7.40
2023-03-26T05:05:11.159Z,7.30
2023-03-26T05:07:38.121Z,7.30
2023-03-26T05:10:06.163Z,7.40
2023-03-26T05:12:33.026Z,7.50
2023-03-26T05:15:00.338Z,7.70
2023-03-26T05:17:30.773Z,7.70
2023-03-26T05:19:57.852Z,7.70
2023-03-26T05:22:24.701Z,7.60
2023-03-26T05:24:52.132Z,7.50
2023-03-26T05:27:22.049Z,7.50
2023-03-26T05:29:48.849Z,7.40
2023-03-26T05:32:15.617Z,7.50
2023-03-26T05:34:42.448Z,7.40
2023-03-26T05:37:09.305Z,7.40
2023-03-26T05:39:36.309Z,7.40
2023-03-26T05:42:03.271Z,7.40
2023-03-26T05:44:30.252Z,7.30
2023-03-26T05:46:57.043Z,7.40
2023-03-26T05:49:23.885Z,7.40
2023-03-26T05:51:50.759Z,7.40
2023-03-26T05:54:17.644Z,7.30
2023-03-26T05:56:44.443Z,7.30
2023-03-26T05:59:11.311Z,7.40
2023-03-26T06:01:38.494Z,7.50
2023-03-26T06:04:05.722Z,7.60
2023-03-26T06:06:33.269Z,7.70
2023-03-26T06:09:01.109Z,7.70
2023-03-26T06:11:31.804Z,7.70
2023-03-26T06:13:59.387Z,7.70
2023-03-26T06:16:27.414Z,7.60
2023-03-26T06:18:56.635Z,7.60
2023-03-26T06:21:30.656Z,7.60
2023-03-26T06:23:57.521Z,7.70
2023-03-26T06:26:24.268Z,7.80
2023-03-26T06:28:51.209Z,7.70
2023-03-26T06:31:19.211Z,7.90
2023-03-26T06:33:46.886Z,7.90
2023-03-26T06:36:13.829Z,7.80
2023-03-26T06:38:40.782Z,8.00
2023-03-26T06:41:07.767Z,8.10
2023-03-26T06:43:36.113Z,8.10
2023-03-26T06:46:03.351Z,8.10
2023-03-26T06:48:30.592Z,8.00
2023-03-26T06:50:57.871Z,8.00
2023-03-26T06:53:27.735Z,7.90
2023-03-26T06:55:54.600Z,8.00
2023-03-26T06:58:22.285Z,8.10
2023-03-26T07:00:54.284Z,8.20
2023-03-26T07:03:21.876Z,8.30
2023-03-26T07:05:48.978Z,8.20
2023-03-26T07:08:16.166Z,8.30
2023-03-26T07:10:43.038Z,8.40
2023-03-26T07:13:10.219Z,8.50
2023-03-26T07:15:37.031Z,8.50
2023-03-26T07:18:04.462Z,8.40
2023-03-26T07:20:31.668Z,8.30
2023-03-26T07:22:58.879Z,8.40
2023-03-26T07:25:26.342Z,8.40
2023-03-26T07:28:20.815Z,8.40
2023-03-26T07:31:15.749Z,8.60
2023-03-26T07:34:26.634Z,8.60
2023-03-26T07:37:10.456Z,8.60
2023-03-26T07:39:53.281Z,8.50
2023-03-26T07:42:31.993Z,8.60
2023-03-26T07:45:19.995Z,8.70
2023-03-26T07:47:49.338Z,8.70
2023-03-26T07:50:19.211Z,8.70
2023-03-26T07:52:46.397Z,8.80
2023-03-26T07:55:15.988Z,9.00
2023-03-26T07:58:33.509Z,9.00
2023-03-26T08:01:53.348Z,9.00
2023-03-26T08:04:41.110Z,9.00
2023-03-26T08:07:45.422Z,9.00
2023-03-26T08:10:28.869Z,9.30
2023-03-26T08:13:19.185Z,9.50
2023-03-26T08:15:53.521Z,9.70
2023-03-26T08:18:44.744Z,9.70
2023-03-26T08:21:27.166Z,9.60
2023-03-26T08:24:11.125Z,9.60
2023-03-26T08:27:13.387Z,9.60
2023-03-26T08:30:07.493Z,9.70
2023-03-26T08:32:34.985Z,9.70
2023-03-26T08:35:03.933Z,9.80
2023-03-26T08:37:31.120Z,9.80
2023-03-26T08:39:57.889Z,9.90
2023-03-26T08:43:07.938Z,9.90
2023-03-26T08:45:56.989Z,10.10
2023-03-26T08:48:53.364Z,10.20
2023-03-26T08:51:58.510Z,10.30
2023-03-26T08:54:57.374Z,10.50
2023-03-26T08:57:50.735Z,10.50
2023-03-26T09:00:49.059Z,10.50
2023-03-26T09:03:47.065Z,10.60
2023-03-26T09:06:42.929Z,10.50
2023-03-26T09:09:46.021Z,10.50
2023-03-26T09:12:20.980Z,10.70
2023-03-26T09:15:19.048Z,10.70
2023-03-26T09:18:36.948Z,10.80
2023-03-26T09:21:46.044Z,10.50
2023-03-26T09:24:57.111Z,10.50
2023-03-26T09:27:38.414Z,10.50
2023-03-26T09:31:08.606Z,10.30
2023-03-26T09:33:59.361Z,10.20
2023-03-26T09:36:32.631Z,10.20
2023-03-26T09:39:42.717Z,10.30
2023-03-26T09:42:41.361Z,10.20
2023-03-26T09:45:50.017Z,9.90
2023-03-26T09:48:29.903Z,9.80
2023-03-26T09:51:33.201Z,9.60
2023-03-26T09:54:31.742Z,9.50
2023-03-26T09:57:26.470Z,9.40
2023-03-26T10:00:25.912Z,9.20
2023-03-26T10:03:11.184Z,9.20
2023-03-26T10:05:56.284Z,9.20
2023-03-26T10:08:32.466Z,9.20
2023-03-26T10:11:35.596Z,9.30
2023-03-26T10:14:27.841Z,9.30
2023-03-26T10:17:25.387Z,9.20
2023-03-26T10:20:21.973Z,9.30
2023-03-26T10:23:14.470Z,9.30
2023-03-26T10:26:12.168Z,9.20
2023-03-26T10:29:11.532Z,9.20
2023-03-26T10:32:10.513Z,9.30
2023-03-26T10:35:16.474Z,9.20
2023-03-26T10:38:14.758Z,9.10
2023-03-26T10:41:05.949Z,9.10
2023-03-26T10:44:43.305Z,9.00
2023-03-26T10:47:25.221Z,9.00
2023-03-26T10:50:22.827Z,8.90
2023-03-26T10:53:11.871Z,8.70
2023-03-26T10:55:47.055Z,8.80
2023-03-26T10:58:23.539Z,8.90
2023-03-26T11:01:14.427Z,9.00
2023-03-26T11:03:54.252Z,9.10
2023-03-26T11:07:00.859Z,9.10
2023-03-26T11:09:49.036Z,9.20
2023-03-26T11:12:31.589Z,9.30
2023-03-26T11:15:26.377Z,9.40
2023-03-26T11:18:22.671Z,9.50
2023-03-26T11:21:19.815Z,9.40
2023-03-26T11:24:25.477Z,9.50
2023-03-26T11:27:45.421Z,9.50
2023-03-26T11:30:48.592Z,9.60
2023-03-26T11:33:22.088Z,9.50
2023-03-26T11:35:59.621Z,9.30
2023-03-26T11:38:41.935Z,9.20
2023-03-26T11:41:23.507Z,9.00
2023-03-26T11:44:24.099Z,8.90
2023-03-26T11:47:01.360Z,9.00
2023-03-26T11:49:29.472Z,9.10
2023-03-26T11:51:56.509Z,9.20
2023-03-26T11:54:23.410Z,9.10
2023-03-26T11:57:07.198Z,9.10
2023-03-26T12:00:18.297Z,9.10
2023-03-26T12:02:47.295Z,9.00
2023-03-26T12:05:14.070Z,9.00
2023-03-26T12:07:57.962Z,9.00
2023-03-26T12:10:38.324Z,8.90
2023-03-26T12:13:29.296Z,8.70
2023-03-26T12:16:14.252Z,8.60
2023-03-26T12:18:44.128Z,8.50
2023-03-26T12:21:19.395Z,8.40
2023-03-26T12:24:04.653Z,8.40
2023-03-26T12:26:42.615Z,8.10
2023-03-26T12:29:17.081Z,7.90
2023-03-26T12:32:06.217Z,7.90
2023-03-26T12:34:35.992Z,7.90
2023-03-26T12:37:06.050Z,7.90
2023-03-26T12:40:09.854Z,8.00
2023-03-26T12:44:44.118Z,8.00
2023-03-26T12:45:37.443Z,8.00
2023-03-26T12:48:05.540Z,8.00
2023-03-26T12:50:42.718Z,7.90
2023-03-26T12:53:49.503Z,7.90
2023-03-26T12:57:20.536Z,7.90
2023-03-26T12:59:56.398Z,7.90
2023-03-26T13:02:32.811Z,8.10
2023-03-26T13:05:17.623Z,8.00
2023-03-26T13:08:05.317Z,8.10
2023-03-26T13:11:22.047Z,8.10
2023-03-26T13:13:58.672Z,8.10
2023-03-26T13:16:56.709Z,8.10
2023-03-26T13:19:41.029Z,8.00
2023-03-26T13:22:56.244Z,7.80
2023-03-26T13:25:48.694Z,7.90
2023-03-26T13:29:13.860Z,8.10
2023-03-26T13:32:23.065Z,8.20
2023-03-26T13:35:14.546Z,8.10
2023-03-26T13:38:03.216Z,8.10
2023-03-26T13:41:02.873Z,8.00
2023-03-26T13:44:19.302Z,7.90
2023-03-26T13:47:00.249Z,8.00
2023-03-26T13:50:18.957Z,8.00
2023-03-26T13:52:56.624Z,8.00
2023-03-26T13:55:43.984Z,8.20
2023-03-26T13:58:10.866Z,8.30
2023-03-26T14:00:55.681Z,8.10
2023-03-26T14:03:50.617Z,8.10
2023-03-26T14:06:57.372Z,8.00
2023-03-26T14:09:44.466Z,8.10
2023-03-26T14:12:43.432Z,8.20
2023-03-26T14:15:25.064Z,8.30
2023-03-26T14:18:28.776Z,8.30
2023-03-26T14:21:23.757Z,8.30
2023-03-26T14:23:56.844Z,8.10
2023-03-26T14:26:32.445Z,8.00
2023-03-26T14:29:21.816Z,8.00
2023-03-26T14:32:24.232Z,8.10
2023-03-26T14:35:12.474Z,8.30
2023-03-26T14:38:07.928Z,8.30
2023-03-26T14:41:06.402Z,8.60
2023-03-26T14:44:50.207Z,8.90
2023-03-26T14:47:19.808Z,8.90
2023-03-26T14:50:20.235Z,8.90
2023-03-26T14:52:52.946Z,9.00
2023-03-26T14:56:04.010Z,9.00
2023-03-26T14:59:23.515Z,8.80
2023-03-26T15:02:46.887Z,8.80
2023-03-26T15:05:53.590Z,8.70
2023-03-26T15:09:10.937Z,8.80
2023-03-26T15:11:46.273Z,8.90
2023-03-26T15:14:44.855Z,9.20
2023-03-26T15:17:29.748Z,9.30
2023-03-26T15:20:50.311Z,9.40
2023-03-26T15:23:52.250Z,9.40
2023-03-26T15:26:52.746Z,9.40
2023-03-26T15:30:11.945Z,9.30
2023-03-26T15:33:06.452Z,9.30
2023-03-26T15:36:10.581Z,9.50
2023-03-26T15:38:48.319Z,9.70
2023-03-26T15:41:28.586Z,9.60
2023-03-26T15:44:22.604Z,9.50
2023-03-26T15:47:01.968Z,9.40
2023-03-26T15:49:46.318Z,9.50
2023-03-26T15:52:29.604Z,9.40
2023-03-26T15:55:27.891Z,9.30
2023-03-26T15:58:32.464Z,9.20
2023-03-26T16:01:22.698Z,9.20
2023-03-26T16:04:15.820Z,9.10
2023-03-26T16:07:03.716Z,9.20
2023-03-26T16:10:29.019Z,9.20
2023-03-26T16:13:31.289Z,9.30
2023-03-26T16:16:04.206Z,9.30
2023-03-26T16:18:45.557Z,9.30
2023-03-26T16:21:39.681Z,9.30
2023-03-26T16:24:07.240Z,9.20
2023-03-26T16:27:29.092Z,9.20
2023-03-26T16:30:15.745Z,9.10
2023-03-26T16:32:48.624Z,9.00
2023-03-26T16:35:15.917Z,9.00
2023-03-26T16:37:50.387Z,9.00
2023-03-26T16:40:26.142Z,9.00
2023-03-26T16:43:36.384Z,8.90
2023-03-26T16:46:13.450Z,9.00
2023-03-26T16:49:26.749Z,9.00
2023-03-26T16:52:15.642Z,9.00
2023-03-26T16:55:07.228Z,8.90
2023-03-26T16:58:05.547Z,8.80
2023-03-26T17:00:48.616Z,8.70
2023-03-26T17:03:59.308Z,8.70
2023-03-26T17:07:08.635Z,8.70
2023-03-26T17:10:08.453Z,8.80
2023-03-26T17:13:09.146Z,8.70
2023-03-26T17:16:01.082Z,8.70
2023-03-26T17:18:30.917Z,8.50
2023-03-26T17:21:24.905Z,8.40
2023-03-26T17:24:15.559Z,8.30
2023-03-26T17:27:04.106Z,8.20
2023-03-26T17:29:58.028Z,8.20
2023-03-26T17:33:03.493Z,8.10
2023-03-26T17:35:46.196Z,8.10
2023-03-26T17:38:15.995Z,8.20
2023-03-26T17:41:00.913Z,8.30
2023-03-26T17:43:50.642Z,8.20
2023-03-26T17:46:39.567Z,8.20
2023-03-26T17:49:12.518Z,8.10
2023-03-26T17:51:48.524Z,8.00
2023-03-26T17:54:41.214Z,8.00
2023-03-26T17:57:30.615Z,8.00
2023-03-26T17:59:59.849Z,8.10
2023-03-26T18:02:42.424Z,8.10
2023-03-26T18:05:14.887Z,8.00
2023-03-26T18:07:59.422Z,8.00
2023-03-26T18:10:56.156Z,7.90
2023-03-26T18:13:46.806Z,7.90
2023-03-26T18:16:39.869Z,7.80
2023-03-26T18:19:19.437Z,7.80
2023-03-26T18:21:52.913Z,7.80
2023-03-26T18:24:25.401Z,7.80
2023-03-26T18:27:00.098Z,7.80
2023-03-26T18:29:35.704Z,7.80
2023-03-26T18:32:17.414Z,7.70
2023-03-26T18:34:53.653Z,7.70
2023-03-26T18:37:34.822Z,7.60
2023-03-26T18:40:12.766Z,7.60
2023-03-26T18:42:41.871Z,7.50
2023-03-26T18:45:34.181Z,7.60
2023-03-26T18:48:19.079Z,7.60
2023-03-26T18:51:06.096Z,7.60
2023-03-26T18:53:41.206Z,7.60
2023-03-26T18:56:36.103Z,7.60
2023-03-26T18:59:07.252Z,7.60
2023-03-26T19:01:37.362Z,7.60
2023-03-26T19:04:07.131Z,7.60
2023-03-26T19:06:39.856Z,7.50
2023-03-26T19:09:28.082Z,7.60
2023-03-26T19:12:09.006Z,7.50
2023-03-26T19:15:10.623Z,7.50
2023-03-26T19:17:47.173Z,7.40
2023-03-26T19:20:23.535Z,7.30
2023-03-26T19:22:51.327Z,7.20
2023-03-26T19:25:35.423Z,7.20
2023-03-26T19:28:03.052Z,7.20
2023-03-26T19:30:36.057Z,7.20
2023-03-26T19:33:13.200Z,7.10
2023-03-26T19:35:43.661Z,7.10
2023-03-26T19:38:27.037Z,7.00
2023-03-26T19:40:58.088Z,7.00
2023-03-26T19:43:26.294Z,7.00
2023-03-26T19:46:00.318Z,7.00
2023-03-26T19:51:18.809Z,7.10
2023-03-26T19:51:25.642Z,7.10
2023-03-26T19:53:55.495Z,7.20
2023-03-26T19:56:22.891Z,7.20
2023-03-26T19:58:50.699Z,7.20
2023-03-26T20:01:21.573Z,7.20
2023-03-26T20:03:52.838Z,7.30
2023-03-26T20:06:30.772Z,7.30
2023-03-26T20:09:01.852Z,7.20
2023-03-26T20:11:34.286Z,7.20
2023-03-26T20:14:01.535Z,7.10
2023-03-26T20:16:34.199Z,7.20
2023-03-26T20:19:04.267Z,7.30
2023-03-26T20:21:34.583Z,7.20
2023-03-26T20:24:02.098Z,7.30
2023-03-26T20:26:28.891Z,7.20
2023-03-26T20:28:56.260Z,7.10
2023-03-26T20:31:26.685Z,7.00
2023-03-26T20:33:54.418Z,7.10
2023-03-26T20:36:33.346Z,7.00
2023-03-26T20:39:05.781Z,7.10
2023-03-26T20:41:33.878Z,7.10
2023-03-26T20:44:01.312Z,7.10
2023-03-26T20:46:31.316Z,7.10
2023-03-26T20:48:59.583Z,7.10
2023-03-26T20:51:28.274Z,7.10
2023-03-26T20:53:56.237Z,7.00
2023-03-26T20:56:23.336Z,7.10
2023-03-26T20:59:03.506Z,7.10
2023-03-26T21:01:31.389Z,7.20
2023-03-26T21:03:58.404Z,7.20
2023-03-26T21:06:25.905Z,7.30
2023-03-26T21:08:53.281Z,7.30
2023-03-26T21:11:33.826Z,7.40
2023-03-26T21:14:09.483Z,7.50
2023-03-26T21:16:37.282Z,7.60
2023-03-26T21:19:04.498Z,7.40
2023-03-26T21:22:09.477Z,7.30
2023-03-26T21:25:00.621Z,7.20
2023-03-26T21:27:45.868Z,7.10
2023-03-26T21:30:16.107Z,7.20
2023-03-26T21:32:45.328Z,7.10
2023-03-26T21:35:14.890Z,7.10
2023-03-26T21:37:44.034Z,7.00
2023-03-26T21:40:16.730Z,7.10
2023-03-26T21:42:48.101Z,7.10
2023-03-26T21:45:15.639Z,7.20
2023-03-26T21:47:43.785Z,7.10
2023-03-26T21:50:18.047Z,7.20
2023-03-26T21:52:48.538Z,7.20
2023-03-26T21:55:21.345Z,7.30
2023-03-26T21:58:12.384Z,7.30
2023-03-26T22:00:59.920Z,7.30
2023-03-26T22:03:39.960Z,7.30
2023-03-26T22:06:25.991Z,7.20
2023-03-26T22:08:53.006Z,7.20
2023-03-26T22:11:20.012Z,7.10
2023-03-26T22:13:46.750Z,7.00
2023-03-26T22:16:13.647Z,7.00
2023-03-26T22:18:40.528Z,7.00
2023-03-26T22:21:07.593Z,6.90
2023-03-26T22:23:36.230Z,6.90
2023-03-26T22:26:05.773Z,7.10
2023-03-26T22:28:32.738Z,7.00
2023-03-26T22:31:05.864Z,6.90
2023-03-26T22:33:32.654Z,6.90
2023-03-26T22:35:59.472Z,6.90
2023-03-26T22:38:26.285Z,7.00
2023-03-26T22:40:57.513Z,7.00
2023-03-26T22:43:24.730Z,7.00
2023-03-26T22:45:54.149Z,7.00
2023-03-26T22:48:24.337Z,6.90
2023-03-26T22:51:04.112Z,6.90
2023-03-26T22:53:32.224Z,6.80
2023-03-26T22:56:00.461Z,6.80
2023-03-26T22:58:28.237Z,6.80
2023-03-26T23:01:08.335Z,6.80
2023-03-26T23:03:36.842Z,6.80
2023-03-26T23:06:07.816Z,6.80
2023-03-26T23:08:37.352Z,6.80
2023-03-26T23:11:17.033Z,6.80
2023-03-26T23:13:45.526Z,6.80
2023-03-26T23:16:14.137Z,6.80
2023-03-26T23:18:41.537Z,6.90
2023-03-26T23:21:15.961Z,7.00
2023-03-26T23:23:43.007Z,7.00
2023-03-26T23:26:10.784Z,7.00
2023-03-26T23:28:38.607Z,6.90
2023-03-26T23:31:09.101Z,6.90
2023-03-26T23:33:38.937Z,6.90
2023-03-26T23:36:10.967Z,7.00
2023-03-26T23:38:43.203Z,7.00
2023-03-26T23:41:15.680Z,6.90
2023-03-26T23:43:53.636Z,6.90
2023-03-26T23:46:23.436Z,6.80
2023-03-26T23:48:52.427Z,6.80
2023-03-26T23:51:20.915Z,6.80
2023-03-26T23:53:49.054Z,6.80
2023-03-26T23:56:16.335Z,7.00
2023-03-26T23:58:43.435Z,7.00
